sensor_id;sensor_type;location;lat;lon;timestamp;P1;durP1;ratioP1;P2;durP2;ratioP2
6117;SDS011;3089;48.202;11.510;2022-10-31T00:01:41;18.73;;;8.67;;
6117;SDS011;3089;48.202;11.510;2022-10-31T00:04:09;16.23;;;7.83;;
6117;SDS011;3089;48.202;11.510;2022-10-31T00:06:36;19.17;;;7.93;;
6117;SDS011;3089;48.202;11.510;2022-10-31T00:09:04;15.03;;;7.53;;
6117;SDS011;3089;48.202;11.510;2022-10-31T00:11:32;18.57;;;7.70;;
6117;SDS011;3089;48.202;11.510;2022-10-31T00:14:00;15.70;;;7.97;;
6117;SDS011;3089;48.202;11.510;2022-10-31T00:16:28;16.80;;;7.30;;
6117;SDS011;3089;48.202;11.510;2022-10-31T00:18:58;20.57;;;7.73;;
6117;SDS011;3089;48.202;11.510;2022-10-31T00:21:28;17.17;;;7.40;;
6117;SDS011;3089;48.202;11.510;2022-10-31T00:23:56;20.13;;;7.50;;
6117;SDS011;3089;48.202;11.510;2022-10-31T00:26:26;11.37;;;5.67;;
6117;SDS011;3089;48.202;11.510;2022-10-31T00:28:54;14.40;;;6.80;;
6117;SDS011;3089;48.202;11.510;2022-10-31T00:31:22;18.73;;;7.30;;
6117;SDS011;3089;48.202;11.510;2022-10-31T00:33:50;15.73;;;6.47;;
6117;SDS011;3089;48.202;11.510;2022-10-31T00:36:19;14.60;;;6.00;;
6117;SDS011;3089;48.202;11.510;2022-10-31T00:38:47;12.17;;;5.73;;
6117;SDS011;3089;48.202;11.510;2022-10-31T00:41:16;14.83;;;5.73;;
6117;SDS011;3089;48.202;11.510;2022-10-31T00:43:45;12.50;;;6.37;;
6117;SDS011;3089;48.202;11.510;2022-10-31T00:46:13;12.83;;;5.77;;
6117;SDS011;3089;48.202;11.510;2022-10-31T00:48:41;14.63;;;5.70;;
6117;SDS011;3089;48.202;11.510;2022-10-31T00:51:19;12.90;;;5.80;;
6117;SDS011;3089;48.202;11.510;2022-10-31T00:53:47;15.73;;;5.83;;
6117;SDS011;3089;48.202;11.510;2022-10-31T00:56:15;20.37;;;6.40;;
6117;SDS011;3089;48.202;11.510;2022-10-31T00:58:43;9.13;;;4.93;;
6117;SDS011;3089;48.202;11.510;2022-10-31T01:01:12;11.17;;;5.90;;
6117;SDS011;3089;48.202;11.510;2022-10-31T01:03:41;14.13;;;5.90;;
6117;SDS011;3089;48.202;11.510;2022-10-31T01:06:10;16.77;;;5.60;;
6117;SDS011;3089;48.202;11.510;2022-10-31T01:08:40;26.27;;;5.17;;
6117;SDS011;3089;48.202;11.510;2022-10-31T01:11:10;11.60;;;4.70;;
6117;SDS011;3089;48.202;11.510;2022-10-31T01:13:39;12.33;;;5.80;;
6117;SDS011;3089;48.202;11.510;2022-10-31T01:16:08;16.23;;;4.97;;
6117;SDS011;3089;48.202;11.510;2022-10-31T01:18:37;11.87;;;4.13;;
6117;SDS011;3089;48.202;11.510;2022-10-31T01:21:06;13.30;;;4.90;;
6117;SDS011;3089;48.202;11.510;2022-10-31T01:23:36;11.13;;;4.80;;
6117;SDS011;3089;48.202;11.510;2022-10-31T01:26:06;18.50;;;5.87;;
6117;SDS011;3089;48.202;11.510;2022-10-31T01:28:37;9.97;;;5.03;;
6117;SDS011;3089;48.202;11.510;2022-10-31T01:31:10;19.30;;;5.37;;
6117;SDS011;3089;48.202;11.510;2022-10-31T01:33:37;13.57;;;4.87;;
6117;SDS011;3089;48.202;11.510;2022-10-31T01:36:12;10.80;;;4.93;;
6117;SDS011;3089;48.202;11.510;2022-10-31T01:38:42;10.80;;;4.00;;
6117;SDS011;3089;48.202;11.510;2022-10-31T01:41:12;14.00;;;4.10;;
6117;SDS011;3089;48.202;11.510;2022-10-31T01:43:45;9.20;;;4.23;;
6117;SDS011;3089;48.202;11.510;2022-10-31T01:46:20;11.10;;;4.37;;
6117;SDS011;3089;48.202;11.510;2022-10-31T01:48:51;11.93;;;5.20;;
6117;SDS011;3089;48.202;11.510;2022-10-31T01:51:22;14.37;;;5.10;;
6117;SDS011;3089;48.202;11.510;2022-10-31T01:53:54;13.53;;;4.97;;
6117;SDS011;3089;48.202;11.510;2022-10-31T01:56:26;10.47;;;4.10;;
6117;SDS011;3089;48.202;11.510;2022-10-31T01:58:54;12.50;;;4.83;;
6117;SDS011;3089;48.202;11.510;2022-10-31T02:01:25;10.00;;;4.70;;
6117;SDS011;3089;48.202;11.510;2022-10-31T02:03:53;12.50;;;4.60;;
6117;SDS011;3089;48.202;11.510;2022-10-31T02:06:26;8.90;;;4.00;;
6117;SDS011;3089;48.202;11.510;2022-10-31T02:08:59;10.47;;;4.40;;
6117;SDS011;3089;48.202;11.510;2022-10-31T02:11:30;9.40;;;4.10;;
6117;SDS011;3089;48.202;11.510;2022-10-31T02:14:00;18.30;;;4.40;;
6117;SDS011;3089;48.202;11.510;2022-10-31T02:16:29;10.27;;;4.13;;
6117;SDS011;3089;48.202;11.510;2022-10-31T02:18:57;17.87;;;4.60;;
6117;SDS011;3089;48.202;11.510;2022-10-31T02:21:26;9.03;;;4.17;;
6117;SDS011;3089;48.202;11.510;2022-10-31T02:24:15;9.50;;;4.10;;
6117;SDS011;3089;48.202;11.510;2022-10-31T02:30:05;11.77;;;5.20;;
6117;SDS011;3089;48.202;11.510;2022-10-31T02:32:45;9.10;;;4.10;;
6117;SDS011;3089;48.202;11.510;2022-10-31T02:35:23;8.67;;;4.07;;
6117;SDS011;3089;48.202;11.510;2022-10-31T02:38:00;10.20;;;4.20;;
6117;SDS011;3089;48.202;11.510;2022-10-31T02:40:33;11.80;;;4.07;;
6117;SDS011;3089;48.202;11.510;2022-10-31T02:43:06;9.53;;;4.37;;
6117;SDS011;3089;48.202;11.510;2022-10-31T02:45:45;7.70;;;3.57;;
6117;SDS011;3089;48.202;11.510;2022-10-31T02:48:19;9.80;;;3.53;;
6117;SDS011;3089;48.202;11.510;2022-10-31T02:50:52;8.63;;;3.60;;
6117;SDS011;3089;48.202;11.510;2022-10-31T02:53:23;13.13;;;3.70;;
6117;SDS011;3089;48.202;11.510;2022-10-31T02:55:54;8.13;;;3.73;;
6117;SDS011;3089;48.202;11.510;2022-10-31T02:58:26;9.63;;;3.40;;
6117;SDS011;3089;48.202;11.510;2022-10-31T03:01:01;9.40;;;3.43;;
6117;SDS011;3089;48.202;11.510;2022-10-31T03:03:40;10.90;;;3.30;;
6117;SDS011;3089;48.202;11.510;2022-10-31T03:06:19;8.20;;;3.67;;
6117;SDS011;3089;48.202;11.510;2022-10-31T03:08:54;15.50;;;4.17;;
6117;SDS011;3089;48.202;11.510;2022-10-31T03:11:28;8.03;;;3.33;;
6117;SDS011;3089;48.202;11.510;2022-10-31T03:14:00;9.60;;;3.50;;
6117;SDS011;3089;48.202;11.510;2022-10-31T03:16:37;9.03;;;3.90;;
6117;SDS011;3089;48.202;11.510;2022-10-31T03:19:14;7.27;;;3.27;;
6117;SDS011;3089;48.202;11.510;2022-10-31T03:21:45;9.80;;;3.60;;
6117;SDS011;3089;48.202;11.510;2022-10-31T03:24:15;10.73;;;3.20;;
6117;SDS011;3089;48.202;11.510;2022-10-31T03:26:44;9.57;;;3.20;;
6117;SDS011;3089;48.202;11.510;2022-10-31T03:29:15;8.20;;;3.20;;
6117;SDS011;3089;48.202;11.510;2022-10-31T03:31:47;18.13;;;3.37;;
6117;SDS011;3089;48.202;11.510;2022-10-31T03:34:20;14.53;;;3.27;;
6117;SDS011;3089;48.202;11.510;2022-10-31T03:36:50;9.10;;;2.83;;
6117;SDS011;3089;48.202;11.510;2022-10-31T03:39:20;6.93;;;2.47;;
6117;SDS011;3089;48.202;11.510;2022-10-31T03:41:51;7.80;;;3.03;;
6117;SDS011;3089;48.202;11.510;2022-10-31T03:44:23;5.33;;;2.60;;
6117;SDS011;3089;48.202;11.510;2022-10-31T03:46:53;5.60;;;2.67;;
6117;SDS011;3089;48.202;11.510;2022-10-31T03:49:23;9.73;;;3.30;;
6117;SDS011;3089;48.202;11.510;2022-10-31T03:51:53;8.17;;;3.03;;
6117;SDS011;3089;48.202;11.510;2022-10-31T03:54:25;11.57;;;4.00;;
6117;SDS011;3089;48.202;11.510;2022-10-31T03:57:00;7.50;;;2.90;;
6117;SDS011;3089;48.202;11.510;2022-10-31T03:59:33;9.83;;;3.40;;
6117;SDS011;3089;48.202;11.510;2022-10-31T04:02:04;10.33;;;3.53;;
6117;SDS011;3089;48.202;11.510;2022-10-31T04:04:36;8.97;;;3.60;;
6117;SDS011;3089;48.202;11.510;2022-10-31T04:07:05;6.57;;;3.57;;
6117;SDS011;3089;48.202;11.510;2022-10-31T04:09:36;7.67;;;3.40;;
6117;SDS011;3089;48.202;11.510;2022-10-31T04:12:06;16.77;;;3.33;;
6117;SDS011;3089;48.202;11.510;2022-10-31T04:14:41;6.60;;;2.93;;
6117;SDS011;3089;48.202;11.510;2022-10-31T04:17:12;7.00;;;2.47;;
6117;SDS011;3089;48.202;11.510;2022-10-31T04:19:44;5.50;;;2.97;;
6117;SDS011;3089;48.202;11.510;2022-10-31T04:22:12;8.30;;;2.60;;
6117;SDS011;3089;48.202;11.510;2022-10-31T04:24:40;5.67;;;2.30;;
6117;SDS011;3089;48.202;11.510;2022-10-31T04:27:08;6.23;;;2.60;;
6117;SDS011;3089;48.202;11.510;2022-10-31T04:29:36;6.80;;;3.10;;
6117;SDS011;3089;48.202;11.510;2022-10-31T04:32:03;8.67;;;3.23;;
6117;SDS011;3089;48.202;11.510;2022-10-31T04:34:31;11.20;;;3.30;;
6117;SDS011;3089;48.202;11.510;2022-10-31T04:37:01;7.20;;;3.70;;
6117;SDS011;3089;48.202;11.510;2022-10-31T04:39:29;9.23;;;2.83;;
6117;SDS011;3089;48.202;11.510;2022-10-31T04:41:57;6.97;;;2.60;;
6117;SDS011;3089;48.202;11.510;2022-10-31T04:44:24;14.77;;;3.20;;
6117;SDS011;3089;48.202;11.510;2022-10-31T04:46:52;5.73;;;2.80;;
6117;SDS011;3089;48.202;11.510;2022-10-31T04:49:20;8.50;;;3.23;;
6117;SDS011;3089;48.202;11.510;2022-10-31T04:51:48;7.70;;;2.47;;
6117;SDS011;3089;48.202;11.510;2022-10-31T04:54:17;9.67;;;2.70;;
6117;SDS011;3089;48.202;11.510;2022-10-31T04:56:44;6.50;;;2.97;;
6117;SDS011;3089;48.202;11.510;2022-10-31T04:59:12;8.70;;;3.70;;
6117;SDS011;3089;48.202;11.510;2022-10-31T05:01:40;9.60;;;3.27;;
6117;SDS011;3089;48.202;11.510;2022-10-31T05:04:09;7.70;;;3.43;;
6117;SDS011;3089;48.202;11.510;2022-10-31T05:06:37;11.13;;;3.30;;
6117;SDS011;3089;48.202;11.510;2022-10-31T05:09:05;10.07;;;3.30;;
6117;SDS011;3089;48.202;11.510;2022-10-31T05:11:34;7.43;;;2.80;;
6117;SDS011;3089;48.202;11.510;2022-10-31T05:14:02;6.13;;;2.70;;
6117;SDS011;3089;48.202;11.510;2022-10-31T05:16:29;6.20;;;3.00;;
6117;SDS011;3089;48.202;11.510;2022-10-31T05:18:57;8.50;;;3.53;;
6117;SDS011;3089;48.202;11.510;2022-10-31T05:21:25;9.73;;;3.50;;
6117;SDS011;3089;48.202;11.510;2022-10-31T05:23:53;11.03;;;3.50;;
6117;SDS011;3089;48.202;11.510;2022-10-31T05:26:21;9.93;;;2.90;;
6117;SDS011;3089;48.202;11.510;2022-10-31T05:28:50;7.50;;;3.10;;
6117;SDS011;3089;48.202;11.510;2022-10-31T05:31:17;7.70;;;2.93;;
6117;SDS011;3089;48.202;11.510;2022-10-31T05:33:45;11.70;;;2.60;;
6117;SDS011;3089;48.202;11.510;2022-10-31T05:36:13;7.30;;;3.10;;
6117;SDS011;3089;48.202;11.510;2022-10-31T05:38:41;10.60;;;3.60;;
6117;SDS011;3089;48.202;11.510;2022-10-31T05:41:09;8.07;;;3.00;;
6117;SDS011;3089;48.202;11.510;2022-10-31T05:43:36;8.43;;;3.40;;
6117;SDS011;3089;48.202;11.510;2022-10-31T05:46:05;8.57;;;2.63;;
6117;SDS011;3089;48.202;11.510;2022-10-31T05:48:33;13.27;;;3.37;;
6117;SDS011;3089;48.202;11.510;2022-10-31T05:51:01;7.63;;;2.80;;
6117;SDS011;3089;48.202;11.510;2022-10-31T05:53:29;10.60;;;3.43;;
6117;SDS011;3089;48.202;11.510;2022-10-31T05:55:57;7.50;;;3.23;;
6117;SDS011;3089;48.202;11.510;2022-10-31T05:58:24;7.97;;;3.17;;
6117;SDS011;3089;48.202;11.510;2022-10-31T06:00:52;8.27;;;3.33;;
6117;SDS011;3089;48.202;11.510;2022-10-31T06:03:21;6.77;;;2.87;;
6117;SDS011;3089;48.202;11.510;2022-10-31T06:05:49;7.43;;;3.00;;
6117;SDS011;3089;48.202;11.510;2022-10-31T06:08:20;4.57;;;2.23;;
6117;SDS011;3089;48.202;11.510;2022-10-31T06:10:48;9.77;;;3.77;;
6117;SDS011;3089;48.202;11.510;2022-10-31T06:13:16;6.43;;;2.23;;
6117;SDS011;3089;48.202;11.510;2022-10-31T06:15:44;6.93;;;3.30;;
6117;SDS011;3089;48.202;11.510;2022-10-31T06:18:11;8.57;;;2.50;;
6117;SDS011;3089;48.202;11.510;2022-10-31T06:20:41;6.23;;;2.57;;
6117;SDS011;3089;48.202;11.510;2022-10-31T06:23:08;11.77;;;3.10;;
6117;SDS011;3089;48.202;11.510;2022-10-31T06:25:36;7.37;;;3.20;;
6117;SDS011;3089;48.202;11.510;2022-10-31T06:28:04;11.53;;;3.33;;
6117;SDS011;3089;48.202;11.510;2022-10-31T06:30:32;10.77;;;3.10;;
6117;SDS011;3089;48.202;11.510;2022-10-31T06:33:03;13.20;;;2.60;;
6117;SDS011;3089;48.202;11.510;2022-10-31T06:35:31;6.93;;;2.50;;
6117;SDS011;3089;48.202;11.510;2022-10-31T06:38:00;8.13;;;3.50;;
6117;SDS011;3089;48.202;11.510;2022-10-31T06:40:29;9.00;;;2.47;;
6117;SDS011;3089;48.202;11.510;2022-10-31T06:42:57;7.60;;;2.70;;
6117;SDS011;3089;48.202;11.510;2022-10-31T06:45:26;10.60;;;2.93;;
6117;SDS011;3089;48.202;11.510;2022-10-31T06:47:54;11.53;;;2.57;;
6117;SDS011;3089;48.202;11.510;2022-10-31T06:50:43;8.77;;;2.90;;
6117;SDS011;3089;48.202;11.510;2022-10-31T06:53:12;6.07;;;2.60;;
6117;SDS011;3089;48.202;11.510;2022-10-31T06:55:41;12.27;;;3.20;;
6117;SDS011;3089;48.202;11.510;2022-10-31T06:58:09;8.60;;;2.97;;
6117;SDS011;3089;48.202;11.510;2022-10-31T07:00:37;7.03;;;2.57;;
6117;SDS011;3089;48.202;11.510;2022-10-31T07:03:06;6.10;;;2.67;;
6117;SDS011;3089;48.202;11.510;2022-10-31T07:05:36;8.33;;;2.87;;
6117;SDS011;3089;48.202;11.510;2022-10-31T07:08:05;7.33;;;2.80;;
6117;SDS011;3089;48.202;11.510;2022-10-31T07:10:36;7.27;;;2.87;;
6117;SDS011;3089;48.202;11.510;2022-10-31T07:13:07;8.03;;;2.80;;
6117;SDS011;3089;48.202;11.510;2022-10-31T07:15:38;8.93;;;2.70;;
6117;SDS011;3089;48.202;11.510;2022-10-31T07:18:08;5.97;;;2.93;;
6117;SDS011;3089;48.202;11.510;2022-10-31T07:20:37;13.00;;;2.90;;
6117;SDS011;3089;48.202;11.510;2022-10-31T07:23:05;10.13;;;3.10;;
6117;SDS011;3089;48.202;11.510;2022-10-31T07:25:33;14.80;;;3.10;;
6117;SDS011;3089;48.202;11.510;2022-10-31T07:28:02;9.67;;;3.30;;
6117;SDS011;3089;48.202;11.510;2022-10-31T07:30:30;13.00;;;3.23;;
6117;SDS011;3089;48.202;11.510;2022-10-31T07:32:58;11.20;;;2.70;;
6117;SDS011;3089;48.202;11.510;2022-10-31T07:35:26;7.70;;;3.40;;
6117;SDS011;3089;48.202;11.510;2022-10-31T07:37:55;9.83;;;3.10;;
6117;SDS011;3089;48.202;11.510;2022-10-31T07:40:23;11.63;;;3.97;;
6117;SDS011;3089;48.202;11.510;2022-10-31T07:42:52;9.43;;;3.40;;
6117;SDS011;3089;48.202;11.510;2022-10-31T07:45:21;8.53;;;3.43;;
6117;SDS011;3089;48.202;11.510;2022-10-31T07:47:49;7.93;;;3.57;;
6117;SDS011;3089;48.202;11.510;2022-10-31T07:50:19;11.27;;;4.20;;
6117;SDS011;3089;48.202;11.510;2022-10-31T07:52:48;8.73;;;3.63;;
6117;SDS011;3089;48.202;11.510;2022-10-31T07:55:24;7.20;;;3.57;;
6117;SDS011;3089;48.202;11.510;2022-10-31T07:57:55;10.93;;;4.33;;
6117;SDS011;3089;48.202;11.510;2022-10-31T08:00:26;8.40;;;4.03;;
6117;SDS011;3089;48.202;11.510;2022-10-31T08:02:57;8.73;;;3.87;;
6117;SDS011;3089;48.202;11.510;2022-10-31T08:05:26;13.03;;;5.10;;
6117;SDS011;3089;48.202;11.510;2022-10-31T08:07:55;11.50;;;4.80;;
6117;SDS011;3089;48.202;11.510;2022-10-31T08:10:24;14.00;;;4.83;;
6117;SDS011;3089;48.202;11.510;2022-10-31T08:12:56;11.60;;;4.30;;
6117;SDS011;3089;48.202;11.510;2022-10-31T08:15:26;14.07;;;4.63;;
6117;SDS011;3089;48.202;11.510;2022-10-31T08:17:54;10.70;;;4.97;;
6117;SDS011;3089;48.202;11.510;2022-10-31T08:20:23;18.17;;;5.63;;
6117;SDS011;3089;48.202;11.510;2022-10-31T08:22:54;12.77;;;5.90;;
6117;SDS011;3089;48.202;11.510;2022-10-31T08:25:23;12.47;;;5.67;;
6117;SDS011;3089;48.202;11.510;2022-10-31T08:27:56;9.10;;;4.60;;
6117;SDS011;3089;48.202;11.510;2022-10-31T08:30:26;10.47;;;4.83;;
6117;SDS011;3089;48.202;11.510;2022-10-31T08:32:59;11.13;;;4.57;;
6117;SDS011;3089;48.202;11.510;2022-10-31T08:35:28;12.70;;;4.50;;
6117;SDS011;3089;48.202;11.510;2022-10-31T08:37:56;13.70;;;5.50;;
6117;SDS011;3089;48.202;11.510;2022-10-31T08:40:26;9.03;;;4.90;;
6117;SDS011;3089;48.202;11.510;2022-10-31T08:42:55;9.87;;;4.00;;
6117;SDS011;3089;48.202;11.510;2022-10-31T08:45:24;12.87;;;5.23;;
6117;SDS011;3089;48.202;11.510;2022-10-31T08:47:53;15.30;;;5.37;;
6117;SDS011;3089;48.202;11.510;2022-10-31T08:50:24;12.70;;;5.97;;
6117;SDS011;3089;48.202;11.510;2022-10-31T08:52:53;14.90;;;7.07;;
6117;SDS011;3089;48.202;11.510;2022-10-31T08:55:36;16.60;;;6.87;;
6117;SDS011;3089;48.202;11.510;2022-10-31T08:58:05;17.73;;;9.70;;
6117;SDS011;3089;48.202;11.510;2022-10-31T09:00:34;37.03;;;11.27;;
6117;SDS011;3089;48.202;11.510;2022-10-31T09:03:04;23.90;;;11.50;;
6117;SDS011;3089;48.202;11.510;2022-10-31T09:05:33;22.57;;;10.23;;
6117;SDS011;3089;48.202;11.510;2022-10-31T09:08:01;28.50;;;8.70;;
6117;SDS011;3089;48.202;11.510;2022-10-31T09:10:31;17.30;;;8.43;;
6117;SDS011;3089;48.202;11.510;2022-10-31T09:13:00;26.50;;;9.43;;
6117;SDS011;3089;48.202;11.510;2022-10-31T09:15:32;20.90;;;9.23;;
6117;SDS011;3089;48.202;11.510;2022-10-31T09:18:01;21.43;;;9.43;;
6117;SDS011;3089;48.202;11.510;2022-10-31T09:20:31;15.47;;;7.80;;
6117;SDS011;3089;48.202;11.510;2022-10-31T09:23:01;17.20;;;8.20;;
6117;SDS011;3089;48.202;11.510;2022-10-31T09:25:30;24.03;;;9.37;;
6117;SDS011;3089;48.202;11.510;2022-10-31T09:28:00;25.73;;;7.67;;
6117;SDS011;3089;48.202;11.510;2022-10-31T09:30:31;16.63;;;7.33;;
6117;SDS011;3089;48.202;11.510;2022-10-31T09:33:00;11.67;;;6.93;;
6117;SDS011;3089;48.202;11.510;2022-10-31T09:35:30;17.83;;;8.23;;
6117;SDS011;3089;48.202;11.510;2022-10-31T09:37:59;18.17;;;7.33;;
6117;SDS011;3089;48.202;11.510;2022-10-31T09:40:31;16.93;;;6.87;;
6117;SDS011;3089;48.202;11.510;2022-10-31T09:43:03;24.33;;;6.23;;
6117;SDS011;3089;48.202;11.510;2022-10-31T09:45:42;24.10;;;7.40;;
6117;SDS011;3089;48.202;11.510;2022-10-31T09:48:28;13.33;;;6.00;;
6117;SDS011;3089;48.202;11.510;2022-10-31T09:51:13;20.70;;;6.67;;
6117;SDS011;3089;48.202;11.510;2022-10-31T09:53:46;12.17;;;5.20;;
6117;SDS011;3089;48.202;11.510;2022-10-31T09:56:17;16.63;;;4.73;;
6117;SDS011;3089;48.202;11.510;2022-10-31T09:58:49;11.10;;;4.33;;
6117;SDS011;3089;48.202;11.510;2022-10-31T10:01:25;25.47;;;5.33;;
6117;SDS011;3089;48.202;11.510;2022-10-31T10:03:58;24.33;;;5.47;;
6117;SDS011;3089;48.202;11.510;2022-10-31T10:06:32;16.27;;;5.70;;
6117;SDS011;3089;48.202;11.510;2022-10-31T10:09:03;13.37;;;5.33;;
6117;SDS011;3089;48.202;11.510;2022-10-31T10:11:37;14.67;;;5.57;;
6117;SDS011;3089;48.202;11.510;2022-10-31T10:14:20;25.63;;;5.30;;
6117;SDS011;3089;48.202;11.510;2022-10-31T10:16:59;12.20;;;4.60;;
6117;SDS011;3089;48.202;11.510;2022-10-31T10:19:50;12.13;;;4.43;;
6117;SDS011;3089;48.202;11.510;2022-10-31T10:22:40;18.40;;;4.80;;
6117;SDS011;3089;48.202;11.510;2022-10-31T10:25:16;16.23;;;5.23;;
6117;SDS011;3089;48.202;11.510;2022-10-31T10:27:50;10.57;;;4.27;;
6117;SDS011;3089;48.202;11.510;2022-10-31T10:30:28;16.20;;;4.77;;
6117;SDS011;3089;48.202;11.510;2022-10-31T10:33:02;11.50;;;4.47;;
6117;SDS011;3089;48.202;11.510;2022-10-31T10:35:38;17.50;;;4.50;;
6117;SDS011;3089;48.202;11.510;2022-10-31T10:38:12;11.63;;;3.87;;
6117;SDS011;3089;48.202;11.510;2022-10-31T10:40:44;8.43;;;4.20;;
6117;SDS011;3089;48.202;11.510;2022-10-31T10:43:22;13.90;;;4.20;;
6117;SDS011;3089;48.202;11.510;2022-10-31T10:45:56;7.83;;;3.60;;
6117;SDS011;3089;48.202;11.510;2022-10-31T10:48:52;15.63;;;4.93;;
6117;SDS011;3089;48.202;11.510;2022-10-31T10:51:27;12.10;;;3.80;;
6117;SDS011;3089;48.202;11.510;2022-10-31T10:54:39;15.63;;;3.70;;
6117;SDS011;3089;48.202;11.510;2022-10-31T10:57:20;14.77;;;4.10;;
6117;SDS011;3089;48.202;11.510;2022-10-31T10:59:54;12.20;;;3.73;;
6117;SDS011;3089;48.202;11.510;2022-10-31T11:02:23;13.07;;;3.53;;
6117;SDS011;3089;48.202;11.510;2022-10-31T11:04:52;10.90;;;2.87;;
6117;SDS011;3089;48.202;11.510;2022-10-31T11:07:24;10.13;;;3.40;;
6117;SDS011;3089;48.202;11.510;2022-10-31T11:10:03;16.33;;;4.27;;
6117;SDS011;3089;48.202;11.510;2022-10-31T11:12:39;10.37;;;3.67;;
6117;SDS011;3089;48.202;11.510;2022-10-31T11:15:07;13.30;;;2.60;;
6117;SDS011;3089;48.202;11.510;2022-10-31T11:17:47;8.80;;;3.10;;
6117;SDS011;3089;48.202;11.510;2022-10-31T11:20:30;16.93;;;2.80;;
6117;SDS011;3089;48.202;11.510;2022-10-31T11:23:01;15.63;;;3.00;;
6117;SDS011;3089;48.202;11.510;2022-10-31T11:25:33;34.43;;;3.20;;
6117;SDS011;3089;48.202;11.510;2022-10-31T11:28:01;10.43;;;3.40;;
6117;SDS011;3089;48.202;11.510;2022-10-31T11:30:30;19.73;;;3.20;;
6117;SDS011;3089;48.202;11.510;2022-10-31T11:33:11;13.70;;;2.70;;
6117;SDS011;3089;48.202;11.510;2022-10-31T11:35:44;16.47;;;3.57;;
6117;SDS011;3089;48.202;11.510;2022-10-31T11:38:15;9.97;;;3.13;;
6117;SDS011;3089;48.202;11.510;2022-10-31T11:40:54;12.27;;;3.30;;
6117;SDS011;3089;48.202;11.510;2022-10-31T11:43:24;6.93;;;2.57;;
6117;SDS011;3089;48.202;11.510;2022-10-31T11:45:53;10.30;;;3.00;;
6117;SDS011;3089;48.202;11.510;2022-10-31T11:48:22;11.47;;;3.13;;
6117;SDS011;3089;48.202;11.510;2022-10-31T11:50:52;8.73;;;2.63;;
6117;SDS011;3089;48.202;11.510;2022-10-31T11:53:24;15.57;;;3.03;;
6117;SDS011;3089;48.202;11.510;2022-10-31T11:56:02;7.07;;;2.77;;
6117;SDS011;3089;48.202;11.510;2022-10-31T11:58:33;8.17;;;2.70;;
6117;SDS011;3089;48.202;11.510;2022-10-31T12:01:00;9.00;;;2.77;;
6117;SDS011;3089;48.202;11.510;2022-10-31T12:03:33;14.70;;;3.40;;
6117;SDS011;3089;48.202;11.510;2022-10-31T12:06:11;7.53;;;2.20;;
6117;SDS011;3089;48.202;11.510;2022-10-31T12:08:43;6.70;;;2.23;;
6117;SDS011;3089;48.202;11.510;2022-10-31T12:11:18;10.00;;;2.00;;
6117;SDS011;3089;48.202;11.510;2022-10-31T12:14:02;12.57;;;3.10;;
6117;SDS011;3089;48.202;11.510;2022-10-31T12:16:36;7.40;;;2.33;;
6117;SDS011;3089;48.202;11.510;2022-10-31T12:19:13;10.37;;;2.70;;
6117;SDS011;3089;48.202;11.510;2022-10-31T12:21:52;9.93;;;2.13;;
6117;SDS011;3089;48.202;11.510;2022-10-31T12:24:34;15.87;;;2.10;;
6117;SDS011;3089;48.202;11.510;2022-10-31T12:27:14;8.90;;;2.40;;
6117;SDS011;3089;48.202;11.510;2022-10-31T12:29:56;6.43;;;2.23;;
6117;SDS011;3089;48.202;11.510;2022-10-31T12:32:36;12.70;;;2.73;;
6117;SDS011;3089;48.202;11.510;2022-10-31T12:35:14;13.17;;;2.83;;
6117;SDS011;3089;48.202;11.510;2022-10-31T12:37:58;10.43;;;2.93;;
6117;SDS011;3089;48.202;11.510;2022-10-31T12:40:51;11.80;;;3.20;;
6117;SDS011;3089;48.202;11.510;2022-10-31T12:43:34;9.00;;;2.20;;
6117;SDS011;3089;48.202;11.510;2022-10-31T12:46:09;16.37;;;3.50;;
6117;SDS011;3089;48.202;11.510;2022-10-31T12:48:46;7.80;;;2.60;;
6117;SDS011;3089;48.202;11.510;2022-10-31T12:51:28;14.63;;;3.00;;
6117;SDS011;3089;48.202;11.510;2022-10-31T12:54:10;10.90;;;2.20;;
6117;SDS011;3089;48.202;11.510;2022-10-31T12:57:01;7.27;;;2.60;;
6117;SDS011;3089;48.202;11.510;2022-10-31T12:59:36;7.40;;;2.77;;
6117;SDS011;3089;48.202;11.510;2022-10-31T13:02:10;10.97;;;2.20;;
6117;SDS011;3089;48.202;11.510;2022-10-31T13:04:44;9.87;;;2.63;;
6117;SDS011;3089;48.202;11.510;2022-10-31T13:07:19;7.90;;;2.70;;
6117;SDS011;3089;48.202;11.510;2022-10-31T13:09:52;12.33;;;2.80;;
6117;SDS011;3089;48.202;11.510;2022-10-31T13:12:23;7.10;;;2.80;;
6117;SDS011;3089;48.202;11.510;2022-10-31T13:14:58;8.97;;;2.23;;
6117;SDS011;3089;48.202;11.510;2022-10-31T13:17:31;12.83;;;2.80;;
6117;SDS011;3089;48.202;11.510;2022-10-31T13:20:15;8.47;;;3.10;;
6117;SDS011;3089;48.202;11.510;2022-10-31T13:22:49;18.97;;;3.17;;
6117;SDS011;3089;48.202;11.510;2022-10-31T13:25:21;18.87;;;2.73;;
6117;SDS011;3089;48.202;11.510;2022-10-31T13:27:53;14.53;;;2.87;;
6117;SDS011;3089;48.202;11.510;2022-10-31T13:30:25;8.73;;;2.63;;
6117;SDS011;3089;48.202;11.510;2022-10-31T13:32:59;8.43;;;2.70;;
6117;SDS011;3089;48.202;11.510;2022-10-31T13:35:31;7.30;;;2.40;;
6117;SDS011;3089;48.202;11.510;2022-10-31T13:38:09;9.50;;;3.53;;
6117;SDS011;3089;48.202;11.510;2022-10-31T13:40:44;6.53;;;2.83;;
6117;SDS011;3089;48.202;11.510;2022-10-31T13:43:20;9.23;;;2.63;;
6117;SDS011;3089;48.202;11.510;2022-10-31T13:45:55;11.20;;;3.27;;
6117;SDS011;3089;48.202;11.510;2022-10-31T13:48:33;10.80;;;2.80;;
6117;SDS011;3089;48.202;11.510;2022-10-31T13:51:04;9.90;;;2.50;;
6117;SDS011;3089;48.202;11.510;2022-10-31T13:53:37;13.53;;;2.50;;
6117;SDS011;3089;48.202;11.510;2022-10-31T13:56:13;11.40;;;2.67;;
6117;SDS011;3089;48.202;11.510;2022-10-31T13:58:54;9.47;;;2.90;;
6117;SDS011;3089;48.202;11.510;2022-10-31T14:01:29;8.03;;;2.37;;
6117;SDS011;3089;48.202;11.510;2022-10-31T14:04:00;12.20;;;2.90;;
6117;SDS011;3089;48.202;11.510;2022-10-31T14:06:42;9.37;;;2.80;;
6117;SDS011;3089;48.202;11.510;2022-10-31T14:09:24;11.97;;;2.70;;
6117;SDS011;3089;48.202;11.510;2022-10-31T14:11:57;12.67;;;2.87;;
6117;SDS011;3089;48.202;11.510;2022-10-31T14:14:29;9.43;;;3.73;;
6117;SDS011;3089;48.202;11.510;2022-10-31T14:17:01;18.80;;;3.60;;
6117;SDS011;3089;48.202;11.510;2022-10-31T14:19:30;12.07;;;4.30;;
6117;SDS011;3089;48.202;11.510;2022-10-31T14:21:57;9.80;;;3.80;;
6117;SDS011;3089;48.202;11.510;2022-10-31T14:24:33;13.13;;;3.60;;
6117;SDS011;3089;48.202;11.510;2022-10-31T14:27:04;9.90;;;3.43;;
6117;SDS011;3089;48.202;11.510;2022-10-31T14:29:47;16.47;;;3.70;;
6117;SDS011;3089;48.202;11.510;2022-10-31T14:32:19;11.77;;;3.63;;
6117;SDS011;3089;48.202;11.510;2022-10-31T14:34:52;13.53;;;3.57;;
6117;SDS011;3089;48.202;11.510;2022-10-31T14:37:26;10.87;;;3.73;;
6117;SDS011;3089;48.202;11.510;2022-10-31T14:40:10;16.13;;;3.53;;
6117;SDS011;3089;48.202;11.510;2022-10-31T14:42:52;16.27;;;4.30;;
6117;SDS011;3089;48.202;11.510;2022-10-31T14:45:31;9.43;;;3.90;;
6117;SDS011;3089;48.202;11.510;2022-10-31T14:48:11;19.90;;;4.80;;
6117;SDS011;3089;48.202;11.510;2022-10-31T14:50:50;11.73;;;4.93;;
6117;SDS011;3089;48.202;11.510;2022-10-31T14:53:21;13.60;;;4.33;;
6117;SDS011;3089;48.202;11.510;2022-10-31T14:55:52;10.57;;;4.90;;
6117;SDS011;3089;48.202;11.510;2022-10-31T14:58:24;16.57;;;5.73;;
6117;SDS011;3089;48.202;11.510;2022-10-31T15:00:57;9.77;;;4.67;;
6117;SDS011;3089;48.202;11.510;2022-10-31T15:03:29;12.33;;;4.47;;
6117;SDS011;3089;48.202;11.510;2022-10-31T15:06:00;13.73;;;5.70;;
6117;SDS011;3089;48.202;11.510;2022-10-31T15:08:34;13.40;;;5.90;;
6117;SDS011;3089;48.202;11.510;2022-10-31T15:11:11;15.27;;;5.00;;
6117;SDS011;3089;48.202;11.510;2022-10-31T15:13:44;19.43;;;5.50;;
6117;SDS011;3089;48.202;11.510;2022-10-31T15:16:13;14.73;;;5.60;;
6117;SDS011;3089;48.202;11.510;2022-10-31T15:18:49;13.43;;;5.87;;
6117;SDS011;3089;48.202;11.510;2022-10-31T15:21:20;17.27;;;6.33;;
6117;SDS011;3089;48.202;11.510;2022-10-31T15:23:51;17.80;;;7.27;;
6117;SDS011;3089;48.202;11.510;2022-10-31T15:26:21;9.80;;;5.20;;